메인 페이지
METAR-TAF:

METAR-TAF

공항 :

대구국제공항

대구광역, 대한민국

위도: 35-54N, 경도: 128-39E, 고도: 35m

현재 날씨관측

예보는 53분 전, 08:00시(UTC)에 발표되었습니다.
남동9kt
온도 19°C
습도 64%
기압 1017 hPa
시정 10km 이상
고도 3000ft 상공 구름 조금
고도 20000ft 상공 구름 많음

METAR: RKTN 210800Z 14009KT 9999 FEW030 BKN200 19/12 Q1017 NOSIG

시각: 17:53 (08:53 UTC)

예보

예보는 3 시간 53분 전, 05:00시(UTC)에 발표되었습니다.
예보 대상 시간: 21일 06시부터 22일 12시까지 (UTC)
남동6kt
시정 10km 이상
고도 3000ft 상공 구름 많음
전환 중
21일 07시부터 21일 08시까지 (UTC)
고도 3000ft 상공 구름 보통

TAF: RKTN 210500Z 2106/2212 13006KT 9999 BKN030 TN13/2121Z TX26/2206Z BECMG 2107/2108 SCT030

4,000개 이상의 공항 관측 자료 및 예보 (METAR 및 TAF 보고).

지도상에서 검색 가능한 기상관측소가 노란 점과 빨간 점으로 표시되어 있습니다.

기상관측소 명을 보려면 표시 위로 마우스를 이동하세요.

날씨 관측과 예보를 보려면 클릭하세요.

지도 변경 : 확대하려면 엑스 표시가 있는 녹색 버튼, 축소하려면 빼기 표시가 있는 녹색 버튼, 다음 페이지의 지도를 보려면 녹색 화살표를 클릭하세요.


METAR-TAF: